Terminal Aerodrome Forecast
Issued by NWS Twin Cities, MN

Home | Current Version | Previous Version | Text Only | Print | Product List | Glossary Off
Versions: 1 2 3 4 5 6 7 8 9 10 11 12 13 14 15 16 17 18 19 20 21 22 23 24 25 26

241
FTUS43 KMPX 141120
TAFMSP
TAF
KMSP 141120Z 1412/1518 09006KT P6SM FEW060 SCT090 BKN110
     FM141800 07006KT P6SM -SHRA BKN025 OVC050
     FM142200 06012KT 6SM -SHRA BR SCT008 OVC012
     FM150000 04014KT 6SM -SHRA BR OVC008
     FM150300 02014G22KT P6SM SCT008 OVC015
     FM150600 33018G24KT P6SM -SHRA SCT015 BKN020
     FM151200 32014G22KT P6SM BKN050=

USA.gov is the U.S. government's official web portal to all federal, state and local government web resources and services.